Time;durP1;ratioP1;P1;durP2;ratioP2;P2;SDS_P1;SDS_P2;PMS_P1;PMS_P2;Temp;Humidity;BMP_temperature;BMP_pressure;BME280_temperature;BME280_humidity;BME280_pressure;Samples;Min_cycle;Max_cycle;Signal;HPM_P1;HPM_P2
2022/03/20 00:00:44;;;;;;;1999.90;999.90;;;6.90;99.90;;;;;;5073274;28;20405;-72
2022/03/20 00:03:11;;;;;;;1999.90;999.90;;;7.00;99.90;;;;;;5072850;28;20409;-72
2022/03/20 00:05:39;;;;;;;1999.90;999.90;;;6.90;99.90;;;;;;5072669;28;20445;-72
2022/03/20 00:08:09;;;;;;;1999.90;999.90;;;6.90;99.90;;;;;;5073080;28;20973;-72
2022/03/20 00:10:57;;;;;;;1999.90;999.90;;;6.90;99.90;;;;;;5073078;28;20437;-72
2022/03/20 00:13:23;;;;;;;1999.90;999.90;;;6.90;99.90;;;;;;5072902;28;20406;-72
2022/03/20 00:15:54;;;;;;;1999.90;999.90;;;6.90;99.90;;;;;;5072562;28;20400;-72
2022/03/20 00:18:21;;;;;;;1999.90;999.90;;;6.90;99.90;;;;;;5072812;28;20396;-72
2022/03/20 00:20:49;;;;;;;1999.90;999.90;;;6.90;99.90;;;;;;5072811;28;20397;-72
2022/03/20 00:23:16;;;;;;;1999.90;999.90;;;6.90;99.90;;;;;;5072798;28;20402;-72
2022/03/20 00:25:44;;;;;;;1999.90;999.90;;;6.80;99.90;;;;;;5072280;28;20417;-72
2022/03/20 00:28:14;;;;;;;1999.90;999.90;;;6.70;99.90;;;;;;5072657;28;20440;-72
2022/03/20 00:30:40;;;;;;;1999.90;999.90;;;6.70;99.90;;;;;;5072686;28;20425;-72
2022/03/20 00:33:07;;;;;;;1999.90;999.90;;;6.70;99.90;;;;;;5071273;28;20421;-72
2022/03/20 00:35:32;;;;;;;1999.90;999.90;;;6.70;99.90;;;;;;5072153;28;20512;-72
2022/03/20 00:37:58;;;;;;;1999.90;999.90;;;6.70;99.90;;;;;;5072513;28;20517;-72
2022/03/20 00:40:24;;;;;;;1999.90;999.90;;;6.70;99.90;;;;;;5072467;28;20458;-72
2022/03/20 00:42:51;;;;;;;1999.90;999.90;;;6.70;99.90;;;;;;5072381;28;20261;-72
2022/03/20 00:45:17;;;;;;;1999.90;999.90;;;6.70;99.90;;;;;;5072024;28;20433;-72
2022/03/20 00:47:42;;;;;;;1999.90;999.90;;;6.60;99.90;;;;;;5072335;28;20503;-72
2022/03/20 00:50:08;;;;;;;1999.90;999.90;;;6.60;99.90;;;;;;5072278;28;20163;-72
2022/03/20 00:52:34;;;;;;;1999.90;999.90;;;6.60;99.90;;;;;;5072315;28;20175;-72
2022/03/20 00:55:00;;;;;;;1999.90;999.90;;;6.50;99.90;;;;;;5071960;28;20417;-72
2022/03/20 00:57:26;;;;;;;1999.90;999.90;;;6.40;99.90;;;;;;5072173;28;20542;-72
2022/03/20 00:59:52;;;;;;;1999.90;999.90;;;6.40;99.90;;;;;;5072124;28;20941;-72
2022/03/20 01:02:18;;;;;;;1999.90;999.90;;;6.40;99.90;;;;;;5072119;28;20417;-72
2022/03/20 01:04:44;;;;;;;1999.90;999.90;;;6.30;99.90;;;;;;5071792;28;20428;-72
2022/03/20 01:07:10;;;;;;;1999.90;999.90;;;6.30;99.90;;;;;;5072002;28;20456;-72
2022/03/20 01:09:36;;;;;;;1999.90;999.90;;;6.20;99.90;;;;;;5072118;28;20191;-72
2022/03/20 01:12:03;;;;;;;1999.90;999.90;;;6.20;99.90;;;;;;5072083;28;20163;-72
2022/03/20 01:14:29;;;;;;;1999.90;999.90;;;6.20;99.90;;;;;;5070993;28;20417;-72
2022/03/20 01:16:55;;;;;;;1999.90;999.90;;;6.10;99.90;;;;;;5071961;28;20440;-72
2022/03/20 01:19:22;;;;;;;1999.90;999.90;;;6.10;99.90;;;;;;5071952;28;20437;-72
2022/03/20 01:21:47;;;;;;;1999.90;999.90;;;6.00;99.90;;;;;;5071955;28;20411;-72
2022/03/20 01:24:13;;;;;;;1999.90;999.90;;;6.00;99.90;;;;;;5071565;28;20507;-72
2022/03/20 01:26:39;;;;;;;1999.90;999.90;;;6.00;99.90;;;;;;5071825;28;20441;-72
2022/03/20 01:29:05;;;;;;;1999.90;999.90;;;5.90;99.90;;;;;;5071875;28;20173;-72
2022/03/20 01:31:35;;;;;;;1999.90;999.90;;;5.90;99.90;;;;;;5071809;28;20579;-72
2022/03/20 01:34:01;;;;;;;1999.90;999.90;;;5.90;99.90;;;;;;5113093;22;20433;-71
2022/03/20 01:36:27;;;;;;;1999.90;999.90;;;5.90;99.90;;;;;;5071800;28;20417;-71
2022/03/20 01:38:53;;;;;;;1999.90;999.90;;;5.90;99.90;;;;;;5071854;28;20405;-71
2022/03/20 01:41:19;;;;;;;1999.90;999.90;;;5.80;99.90;;;;;;5071748;28;20408;-71
2022/03/20 01:44:14;;;;;;;1999.90;999.90;;;5.80;99.90;;;;;;5071913;28;20405;-71
2022/03/20 01:46:39;;;;;;;1999.90;999.90;;;5.70;99.90;;;;;;5034573;28;20844;-71
2022/03/20 01:49:05;;;;;;;1999.90;999.90;;;5.60;99.90;;;;;;5051653;28;20410;-71
2022/03/20 01:54:15;;;;;;;1999.90;999.90;;;5.50;99.90;;;;;;5051371;28;20416;-71
2022/03/20 01:56:45;;;;;;;1999.90;999.90;;;5.40;99.90;;;;;;5051757;28;20505;-70
2022/03/20 01:59:11;;;;;;;1999.90;999.90;;;5.50;99.90;;;;;;5053096;28;20207;-70
2022/03/20 02:01:37;;;;;;;1999.90;999.90;;;5.50;99.90;;;;;;5053313;28;20779;-70
2022/03/20 02:04:03;;;;;;;1999.90;999.90;;;5.50;99.90;;;;;;5052703;28;20410;-70
2022/03/20 02:06:28;;;;;;;1999.90;999.90;;;5.50;99.90;;;;;;5052900;28;20207;-70
2022/03/20 02:08:56;;;;;;;1999.90;999.90;;;5.60;99.90;;;;;;5052792;28;20409;-70
2022/03/20 02:11:27;;;;;;;1999.90;999.90;;;5.60;99.90;;;;;;5053391;28;20583;-70
2022/03/20 02:13:53;;;;;;;1999.90;999.90;;;5.60;99.90;;;;;;5052587;28;20383;-71
2022/03/20 02:16:19;;;;;;;1999.90;999.90;;;5.60;99.90;;;;;;5052717;28;20417;-71
2022/03/20 02:18:46;;;;;;;1999.90;999.90;;;5.70;99.90;;;;;;5053109;28;20403;-71
2022/03/20 02:21:12;;;;;;;1999.90;999.90;;;5.70;99.90;;;;;;5052859;28;20408;-71
2022/03/20 02:23:37;;;;;;;1999.90;999.90;;;5.70;99.90;;;;;;5052988;28;20441;-71
2022/03/20 02:26:03;;;;;;;1999.90;999.90;;;5.60;99.90;;;;;;5055586;28;20274;-71
2022/03/20 02:28:29;;;;;;;1999.90;999.90;;;5.60;99.90;;;;;;5048377;28;20534;-71
2022/03/20 02:30:55;;;;;;;1999.90;999.90;;;5.50;99.90;;;;;;5056561;28;20667;-71
2022/03/20 02:33:23;;;;;;;1999.90;999.90;;;5.50;99.90;;;;;;5056345;28;20426;-70
2022/03/20 02:35:51;;;;;;;1999.90;999.90;;;5.50;99.90;;;;;;5055883;28;20195;-71
2022/03/20 02:38:18;;;;;;;1999.90;999.90;;;5.50;99.90;;;;;;5056591;28;20835;-71
2022/03/20 02:40:45;;;;;;;1999.90;999.90;;;5.50;99.90;;;;;;5056322;28;20477;-71
2022/03/20 02:43:11;;;;;;;1999.90;999.90;;;5.40;99.90;;;;;;5056009;28;20414;-70
2022/03/20 02:45:37;;;;;;;1999.90;999.90;;;5.40;99.90;;;;;;5055538;28;20430;-70
2022/03/20 02:48:07;;;;;;;1999.90;999.90;;;5.40;99.90;;;;;;5055941;28;20934;-71
2022/03/20 02:50:35;;;;;;;1999.90;999.90;;;5.30;99.90;;;;;;5055828;28;20493;-71
2022/03/20 02:53:02;;;;;;;1999.90;999.90;;;5.30;99.90;;;;;;5055947;28;20414;-70
2022/03/20 02:55:30;;;;;;;1999.90;999.90;;;5.30;99.90;;;;;;5056082;28;20806;-71
2022/03/20 02:58:01;;;;;;;1999.90;999.90;;;5.20;99.90;;;;;;5056040;28;20402;-70
2022/03/20 03:00:28;;;;;;;1999.90;999.90;;;5.10;99.90;;;;;;5056011;28;20464;-70
2022/03/20 03:02:56;;;;;;;1999.90;999.90;;;5.00;99.90;;;;;;5055508;28;20406;-71
2022/03/20 03:05:24;;;;;;;1999.90;999.90;;;5.00;99.90;;;;;;5054941;28;20461;-71
2022/03/20 03:13:37;;;;;;;1999.90;999.90;;;5.00;99.90;;;;;;5055953;28;20460;-71
2022/03/20 03:16:09;;;;;;;1999.90;999.90;;;4.90;99.90;;;;;;5055078;28;20444;-71
2022/03/20 03:18:37;;;;;;;1999.90;999.90;;;4.80;99.90;;;;;;5055319;28;20419;-70
2022/03/20 03:21:03;;;;;;;1999.90;999.90;;;4.80;99.90;;;;;;5055403;28;20406;-71
2022/03/20 03:23:29;;;;;;;1999.90;999.90;;;4.70;99.90;;;;;;5055329;28;20441;-71
2022/03/20 03:25:56;;;;;;;1999.90;999.90;;;4.70;99.90;;;;;;5055232;28;20430;-71
2022/03/20 03:28:23;;;;;;;1999.90;999.90;;;4.60;99.90;;;;;;5055138;28;20410;-70
2022/03/20 03:30:50;;;;;;;1999.90;999.90;;;4.60;99.90;;;;;;5055088;28;20425;-70
2022/03/20 03:33:19;;;;;;;1999.90;999.90;;;4.70;99.90;;;;;;5055266;28;20441;-71
2022/03/20 03:35:53;;;;;;;1999.90;999.90;;;4.70;99.90;;;;;;5054187;28;20540;-71
2022/03/20 03:38:27;;;;;;;1999.90;999.90;;;4.70;99.90;;;;;;5054667;28;20437;-71
2022/03/20 03:40:56;;;;;;;1999.90;999.90;;;4.70;99.90;;;;;;5054553;28;20375;-70
2022/03/20 03:43:23;;;;;;;1999.90;999.90;;;4.70;99.90;;;;;;5054813;28;20402;-71
2022/03/20 03:45:48;;;;;;;1999.90;999.90;;;4.80;99.90;;;;;;5054292;28;20430;-71
2022/03/20 03:48:16;;;;;;;1999.90;999.90;;;4.80;99.90;;;;;;5055027;28;20779;-71
2022/03/20 03:50:43;;;;;;;1999.90;999.90;;;4.80;99.90;;;;;;5054759;28;20214;-71
2022/03/20 03:53:10;;;;;;;1999.90;999.90;;;4.70;99.90;;;;;;5054098;28;20414;-71
2022/03/20 03:55:37;;;;;;;1999.90;999.90;;;4.70;99.90;;;;;;5053163;28;20869;-71
2022/03/20 03:58:03;;;;;;;1999.90;999.90;;;4.70;99.90;;;;;;5053402;28;20402;-70
2022/03/20 04:00:32;;;;;;;1999.90;999.90;;;4.70;99.90;;;;;;5045324;28;20481;-71
2022/03/20 04:02:59;;;;;;;1999.90;999.90;;;4.60;99.90;;;;;;5053229;28;20966;-70
2022/03/20 04:05:25;;;;;;;1999.90;999.90;;;4.50;99.90;;;;;;5052806;28;20441;-70
2022/03/20 04:07:50;;;;;;;1999.90;999.90;;;4.50;99.90;;;;;;5053066;28;20449;-70
2022/03/20 04:10:17;;;;;;;1999.90;999.90;;;4.50;99.90;;;;;;5053471;28;20430;-70
2022/03/20 04:12:44;;;;;;;1999.90;999.90;;;4.50;99.90;;;;;;5053027;28;20226;-71
2022/03/20 04:15:13;;;;;;;1999.90;999.90;;;4.50;99.90;;;;;;5052738;28;20425;-71
2022/03/20 04:17:40;;;;;;;1999.90;999.90;;;4.50;99.90;;;;;;5052900;28;20402;-70
2022/03/20 04:20:07;;;;;;;1999.90;999.90;;;4.40;99.90;;;;;;5052914;28;20398;-71
2022/03/20 04:22:36;;;;;;;1999.90;999.90;;;4.40;99.90;;;;;;5053052;28;20410;-70
2022/03/20 04:25:04;;;;;;;1999.90;999.90;;;4.30;99.90;;;;;;5052583;28;20465;-71
2022/03/20 04:27:30;;;;;;;1999.90;999.90;;;4.20;99.90;;;;;;5052611;28;20477;-71
2022/03/20 04:29:56;;;;;;;1999.90;999.90;;;4.20;99.90;;;;;;5052689;28;20417;-71
2022/03/20 04:32:21;;;;;;;1999.90;999.90;;;4.10;99.90;;;;;;5052586;28;20887;-71
2022/03/20 04:34:47;;;;;;;1999.90;999.90;;;4.10;99.90;;;;;;5052173;28;20341;-71
2022/03/20 04:37:14;;;;;;;1999.90;999.90;;;4.20;99.90;;;;;;5052818;28;20176;-70
2022/03/20 04:39:40;;;;;;;1999.90;999.90;;;4.20;99.90;;;;;;5052573;28;20401;-71
2022/03/20 04:42:09;;;;;;;1999.90;999.90;;;4.20;99.90;;;;;;5052507;28;20777;-71
2022/03/20 04:44:34;;;;;;;1999.90;999.90;;;4.20;99.90;;;;;;5052086;28;20183;-70
2022/03/20 04:47:00;;;;;;;1999.90;999.90;;;4.20;99.90;;;;;;5052362;28;20464;-71
2022/03/20 05:00:24;;;;;;;1999.90;999.90;;;4.20;99.90;;;;;;5052494;28;20412;-71
2022/03/20 05:02:50;;;;;;;1999.90;999.90;;;4.20;99.90;;;;;;5052204;28;20438;-71
2022/03/20 05:05:16;;;;;;;1999.90;999.90;;;4.30;99.90;;;;;;5051784;28;20794;-71
2022/03/20 05:07:42;;;;;;;1999.90;999.90;;;4.30;99.90;;;;;;5051929;28;20190;-71
2022/03/20 05:15:37;;;;;;;1999.90;999.90;;;4.60;99.90;;;;;;5044981;28;20471;-70
2022/03/20 05:18:09;;;;;;;1999.90;999.90;;;4.60;99.90;;;;;;5051929;28;20414;-71
2022/03/20 05:20:35;;;;;;;1999.90;999.90;;;4.60;99.90;;;;;;5051939;28;20172;-71
2022/03/20 05:23:01;;;;;;;1999.90;999.90;;;4.60;99.90;;;;;;5051950;28;20804;-71
2022/03/20 05:25:30;;;;;;;1999.90;999.90;;;4.70;99.90;;;;;;5051563;28;20668;-70
2022/03/20 05:27:57;;;;;;;1999.90;999.90;;;4.90;99.90;;;;;;5051868;28;20860;-71
2022/03/20 05:30:24;;;;;;;1999.90;999.90;;;5.00;99.90;;;;;;5051944;28;20413;-71
2022/03/20 05:32:50;;;;;;;1999.90;999.90;;;4.90;99.90;;;;;;5051880;28;20406;-70
2022/03/20 05:35:16;;;;;;;1999.90;999.90;;;5.10;99.90;;;;;;5051475;28;20442;-71
2022/03/20 05:37:43;;;;;;;1999.90;999.90;;;5.20;99.90;;;;;;5051751;28;20406;-70
2022/03/20 05:40:09;;;;;;;1999.90;999.90;;;5.20;99.90;;;;;;5052070;28;20437;-71
2022/03/20 05:42:36;;;;;;;1999.90;999.90;;;5.30;99.90;;;;;;5052214;28;20406;-71
2022/03/20 05:45:04;;;;;;;1999.90;999.90;;;5.30;99.90;;;;;;5051939;28;20831;-71
2022/03/20 05:47:31;;;;;;;1999.90;999.90;;;5.40;99.90;;;;;;5052220;28;20465;-71
2022/03/20 05:50:01;;;;;;;1999.90;999.90;;;5.50;99.90;;;;;;5052148;28;20413;-71
2022/03/20 05:52:31;;;;;;;1999.90;999.90;;;5.50;99.90;;;;;;5052107;28;20402;-71
2022/03/20 05:54:57;;;;;;;1999.90;999.90;;;5.50;99.90;;;;;;5051768;28;20426;-71
2022/03/20 06:00:16;;;;;;;1999.90;999.90;;;5.60;99.90;;;;;;5053957;28;20432;-70
2022/03/20 06:02:43;;;;;;;1999.90;999.90;;;5.60;99.90;;;;;;5055954;28;20432;-71
2022/03/20 06:05:09;;;;;;;1999.90;999.90;;;5.60;99.90;;;;;;5055560;28;20426;-70
2022/03/20 06:07:40;;;;;;;1999.90;999.90;;;5.70;99.90;;;;;;5055871;28;20453;-71
2022/03/20 06:10:09;;;;;;;1999.90;999.90;;;5.70;99.90;;;;;;5055841;28;20413;-71
2022/03/20 06:12:34;;;;;;;1999.90;999.90;;;5.80;99.90;;;;;;5055857;28;20405;-71
2022/03/20 06:15:00;;;;;;;1999.90;999.90;;;5.80;99.90;;;;;;5055719;28;20934;-71
2022/03/20 06:17:25;;;;;;;1999.90;999.90;;;5.90;99.90;;;;;;5055915;28;20556;-71
2022/03/20 06:19:52;;;;;;;1999.90;999.90;;;5.90;99.90;;;;;;5055260;28;20180;-71
2022/03/20 06:22:18;;;;;;;1999.90;999.90;;;5.90;99.90;;;;;;5055204;28;20260;-71
2022/03/20 06:24:43;;;;;;;1999.90;999.90;;;6.00;99.90;;;;;;5054994;28;20517;-71
2022/03/20 06:27:09;;;;;;;1999.90;999.90;;;6.00;99.90;;;;;;5055199;28;20738;-71
2022/03/20 06:29:34;;;;;;;1999.90;999.90;;;6.00;99.90;;;;;;5055046;28;20200;-71
2022/03/20 06:32:00;;;;;;;1999.90;999.90;;;6.00;99.90;;;;;;5055012;28;20207;-71
2022/03/20 06:34:26;;;;;;;1999.90;999.90;;;6.00;99.90;;;;;;5054496;28;20192;-71
2022/03/20 06:36:55;;;;;;;1999.90;999.90;;;6.00;99.90;;;;;;5054869;28;20191;-71
2022/03/20 06:39:21;;;;;;;1999.90;999.90;;;6.00;99.90;;;;;;5054741;28;20417;-71
2022/03/20 06:41:47;;;;;;;1999.90;999.90;;;6.10;99.90;;;;;;5054813;28;20762;-71
2022/03/20 06:44:15;;;;;;;1999.90;999.90;;;6.00;99.90;;;;;;5054430;28;20529;-71
2022/03/20 06:46:41;;;;;;;1999.90;999.90;;;6.00;99.90;;;;;;5054634;28;20219;-71
2022/03/20 06:49:09;;;;;;;1999.90;999.90;;;6.10;99.90;;;;;;5054728;28;20501;-71
2022/03/20 06:51:34;;;;;;;1999.90;999.90;;;6.20;99.90;;;;;;5054486;28;20445;-71
2022/03/20 06:54:00;;;;;;;1999.90;999.90;;;6.20;99.90;;;;;;5054119;28;20442;-71
2022/03/20 06:56:28;;;;;;;1999.90;999.90;;;6.40;99.90;;;;;;5054468;28;20632;-71
2022/03/20 06:58:55;;;;;;;1999.90;999.90;;;6.40;99.90;;;;;;5054449;28;20179;-71
2022/03/20 07:01:21;;;;;;;1999.90;999.90;;;6.50;99.90;;;;;;5054398;28;20973;-71
2022/03/20 07:03:47;;;;;;;1999.90;999.90;;;6.50;99.90;;;;;;5054300;28;20406;-71
2022/03/20 07:06:12;;;;;;;1999.90;999.90;;;6.60;99.90;;;;;;5054005;28;20453;-71
2022/03/20 07:08:38;;;;;;;1999.90;999.90;;;6.60;99.90;;;;;;5054200;28;20179;-71
2022/03/20 07:11:03;;;;;;;1999.90;999.90;;;6.60;99.90;;;;;;5053251;28;20176;-71
2022/03/20 07:16:15;;;;;;;1999.90;999.90;;;6.60;99.90;;;;;;5053952;28;20708;-71
2022/03/20 07:18:42;;;;;;;1999.90;999.90;;;6.70;99.90;;;;;;5054046;28;20751;-71
2022/03/20 07:21:08;;;;;;;1999.90;999.90;;;6.70;99.90;;;;;;5054003;28;20406;-71
2022/03/20 07:23:35;;;;;;;1999.90;999.90;;;6.70;99.90;;;;;;5053970;28;20430;-71
2022/03/20 07:31:30;;;;;;;1999.90;999.90;;;7.00;99.90;;;;;;5053878;28;20405;-71
2022/03/20 07:33:55;;;;;;;1999.90;999.90;;;7.10;99.90;;;;;;5053482;28;20883;-71
2022/03/20 07:36:21;;;;;;;1999.90;999.90;;;7.20;99.90;;;;;;5054151;28;20168;-71
2022/03/20 07:38:47;;;;;;;1999.90;999.90;;;7.30;99.90;;;;;;5053663;28;20262;-71
2022/03/20 07:41:13;;;;;;;1999.90;999.90;;;7.40;99.90;;;;;;5053685;28;20179;-71
2022/03/20 07:43:38;;;;;;;1999.90;999.90;;;7.50;99.90;;;;;;5053479;28;20443;-71
2022/03/20 07:46:06;;;;;;;1999.90;999.90;;;7.40;99.90;;;;;;5053066;28;20222;-71
2022/03/20 07:48:31;;;;;;;1999.90;999.90;;;7.40;99.90;;;;;;5053714;28;20220;-71
2022/03/20 07:50:58;;;;;;;1999.90;999.90;;;7.40;99.90;;;;;;5053448;28;20488;-71
2022/03/20 07:53:25;;;;;;;1999.90;999.90;;;7.40;99.90;;;;;;5053420;28;20641;-71
2022/03/20 07:55:50;;;;;;;1999.90;999.90;;;7.50;99.90;;;;;;5053075;28;20419;-71
2022/03/20 07:58:18;;;;;;;1999.90;999.90;;;7.60;99.90;;;;;;5053333;28;20421;-71
2022/03/20 08:00:44;;;;;;;1999.90;999.90;;;7.70;99.90;;;;;;5053267;28;20510;-71
2022/03/20 08:03:10;;;;;;;1999.90;999.90;;;7.90;99.90;;;;;;5053459;28;20410;-71
2022/03/20 08:05:35;;;;;;;1999.90;999.90;;;7.90;99.90;;;;;;5052771;28;20953;-71
2022/03/20 08:08:02;;;;;;;1999.90;999.90;;;8.00;99.90;;;;;;5053068;28;20601;-71
2022/03/20 08:10:28;;;;;;;1999.90;999.90;;;8.10;99.90;;;;;;5053176;28;20554;-71
2022/03/20 08:12:54;;;;;;;1999.90;999.90;;;8.20;99.90;;;;;;5052932;28;20402;-71
2022/03/20 08:15:20;;;;;;;1999.90;999.90;;;8.30;99.90;;;;;;5052641;28;20431;-71
2022/03/20 08:17:47;;;;;;;1999.90;999.90;;;8.40;99.90;;;;;;5053090;28;20181;-71
2022/03/20 08:20:13;;;;;;;1999.90;999.90;;;8.40;99.90;;;;;;5053000;28;20291;-71
2022/03/20 08:22:39;;;;;;;1999.90;999.90;;;8.50;99.90;;;;;;5052756;28;20406;-71
2022/03/20 08:25:06;;;;;;;1999.90;999.90;;;8.40;99.90;;;;;;5052532;28;20446;-71
2022/03/20 08:27:44;;;;;;;1999.90;999.90;;;8.30;99.90;;;;;;5052708;28;20669;-71
2022/03/20 08:30:11;;;;;;;1999.90;999.90;;;8.20;99.90;;;;;;5052744;28;20438;-71
2022/03/20 08:32:37;;;;;;;1999.90;999.90;;;8.10;99.90;;;;;;5053028;28;20934;-71
2022/03/20 08:35:04;;;;;;;1999.90;999.90;;;8.30;99.90;;;;;;5052090;28;20450;-71
2022/03/20 08:37:31;;;;;;;1999.90;999.90;;;8.40;99.90;;;;;;5052533;28;20407;-71
2022/03/20 08:39:58;;;;;;;1999.90;999.90;;;8.50;99.90;;;;;;5052526;28;20411;-71
2022/03/20 08:42:23;;;;;;;1999.90;999.90;;;8.60;99.90;;;;;;5052499;28;20409;-71
2022/03/20 08:44:52;;;;;;;1999.90;999.90;;;8.80;99.90;;;;;;5052127;28;20935;-71
2022/03/20 08:47:18;;;;;;;1999.90;999.90;;;8.90;99.90;;;;;;5052412;28;20196;-71
2022/03/20 08:49:43;;;;;;;1999.90;999.90;;;8.80;99.90;;;;;;5052394;28;20826;-71
2022/03/20 08:52:09;;;;;;;1999.90;999.90;;;8.80;99.90;;;;;;5052372;28;20730;-71
2022/03/20 08:54:34;;;;;;;1999.90;999.90;;;8.70;99.90;;;;;;5051946;28;20188;-71
2022/03/20 08:57:01;;;;;;;1999.90;999.90;;;8.80;99.90;;;;;;5052301;28;20225;-71
2022/03/20 08:59:27;;;;;;;1999.90;999.90;;;8.70;99.90;;;;;;5052245;28;20243;-70
2022/03/20 09:01:52;;;;;;;1999.90;999.90;;;8.60;99.90;;;;;;5052397;28;20923;-71
2022/03/20 09:04:18;;;;;;;1999.90;999.90;;;8.40;99.90;;;;;;5051780;28;20679;-71
2022/03/20 09:06:47;;;;;;;1999.90;999.90;;;8.30;99.90;;;;;;5052085;28;20239;-71
2022/03/20 09:09:14;;;;;;;1999.90;999.90;;;8.30;99.90;;;;;;5052071;28;20180;-71
2022/03/20 09:11:41;;;;;;;1999.90;999.90;;;8.40;99.90;;;;;;5052026;28;20426;-71
2022/03/20 09:14:07;;;;;;;1999.90;999.90;;;8.30;99.90;;;;;;5051685;28;20907;-71
2022/03/20 09:19:18;;;;;;;1999.90;999.90;;;8.40;99.90;;;;;;5052004;28;20522;-71
2022/03/20 09:21:44;;;;;;;1999.90;999.90;;;8.20;99.90;;;;;;5051786;28;20411;-71
2022/03/20 09:24:10;;;;;;;1999.90;999.90;;;8.10;99.90;;;;;;5051527;28;20426;-71
2022/03/20 09:26:36;;;;;;;1999.90;999.90;;;8.20;99.90;;;;;;5051099;28;20453;-71
2022/03/20 09:29:03;;;;;;;1999.90;999.90;;;8.30;99.90;;;;;;5051025;28;20411;-71
2022/03/20 09:31:31;;;;;;;1999.90;999.90;;;8.30;99.90;;;;;;5051659;28;20177;-71
2022/03/20 09:33:57;;;;;;;1999.90;999.90;;;8.40;99.90;;;;;;5052448;28;20400;-71
2022/03/20 09:36:23;;;;;;;1999.90;999.90;;;8.50;99.90;;;;;;5058134;28;20417;-71
2022/03/20 09:38:49;;;;;;;1999.90;999.90;;;8.80;99.90;;;;;;5054797;28;20485;-70
2022/03/20 09:41:15;;;;;;;1999.90;999.90;;;9.00;99.90;;;;;;5058012;28;20403;-70
2022/03/20 09:43:42;;;;;;;1999.90;999.90;;;9.00;99.90;;;;;;5058040;28;20758;-71
2022/03/20 09:46:08;;;;;;;1999.90;999.90;;;9.10;99.90;;;;;;5057176;28;20204;-70
2022/03/20 09:48:35;;;;;;;1999.90;999.90;;;9.00;99.90;;;;;;5057833;28;20434;-70
2022/03/20 09:51:03;;;;;;;1999.90;999.90;;;9.10;99.90;;;;;;5056064;28;20818;-71
2022/03/20 09:53:29;;;;;;;1999.90;999.90;;;9.30;99.90;;;;;;5048724;28;20427;-71
2022/03/20 09:55:56;;;;;;;1999.90;999.90;;;9.60;99.90;;;;;;5057154;28;20419;-72
2022/03/20 09:58:28;;;;;;;1999.90;999.90;;;9.80;99.90;;;;;;5057456;28;20529;-71
2022/03/20 10:00:54;;;;;;;1999.90;999.90;;;10.00;99.90;;;;;;5050950;28;20440;-71
2022/03/20 10:03:22;;;;;;;1999.90;999.90;;;10.10;99.90;;;;;;5054857;28;21099;-71
2022/03/20 10:06:15;;;;;;;1999.90;999.90;;;9.90;99.90;;;;;;5057094;28;20433;-71
2022/03/20 10:09:02;;;;;;;1999.90;999.90;;;10.10;99.90;;;;;;5056748;28;20972;-72
2022/03/20 10:11:28;;;;;;;1999.90;999.90;;;10.40;99.90;;;;;;5057315;28;20461;-71
2022/03/20 10:14:30;;;;;;;1999.90;999.90;;;10.70;99.90;;;;;;5057129;28;20488;-72
2022/03/20 10:17:17;;;;;;;1999.90;999.90;;;10.90;99.90;;;;;;5056860;28;20400;-72
2022/03/20 10:19:43;;;;;;;1999.90;999.90;;;11.10;99.40;;;;;;5057689;28;20415;-71
2022/03/20 10:22:12;;;;;;;1999.90;999.90;;;11.20;99.90;;;;;;5056828;28;20405;-72
2022/03/20 10:24:40;;;;;;;1999.90;999.90;;;11.10;98.40;;;;;;5056854;28;20427;-72
2022/03/20 10:27:09;;;;;;;1999.90;999.90;;;11.10;99.20;;;;;;5056719;28;20492;-73
2022/03/20 10:29:36;;;;;;;1999.90;999.90;;;11.30;99.90;;;;;;5057065;28;20433;-72
2022/03/20 10:32:10;;;;;;;1999.90;999.90;;;11.40;98.90;;;;;;5056701;28;20414;-72
2022/03/20 10:34:51;;;;;;;1999.90;999.90;;;11.50;98.50;;;;;;5056766;28;20490;-72
2022/03/20 10:37:18;;;;;;;1999.90;999.90;;;11.60;96.50;;;;;;5056739;28;20410;-71
2022/03/20 10:39:44;;;;;;;1999.90;999.90;;;11.70;98.10;;;;;;5056773;28;20776;-72
2022/03/20 10:42:15;;;;;;;1999.90;999.90;;;11.70;97.10;;;;;;5057349;28;20430;-72
2022/03/20 10:44:42;;;;;;;1999.90;999.90;;;11.90;98.80;;;;;;5057022;28;20934;-72
2022/03/20 10:47:16;;;;;;;1999.90;999.90;;;11.80;96.50;;;;;;5053760;28;20556;-71
2022/03/20 10:49:47;;;;;;;1999.90;999.90;;;11.90;95.90;;;;;;5053928;28;20405;-72
2022/03/20 10:52:19;;;;;;;1999.90;999.90;;;12.10;96.40;;;;;;5053664;28;20887;-72
2022/03/20 10:54:47;;;;;;;1999.90;999.90;;;12.20;96.10;;;;;;5053629;28;20786;-72
2022/03/20 10:57:14;;;;;;;1999.90;999.90;;;12.60;95.70;;;;;;5053828;28;20403;-72
2022/03/20 10:59:41;;;;;;;1999.90;999.90;;;12.80;95.00;;;;;;5053898;28;20421;-71
2022/03/20 11:02:20;;;;;;;1999.90;999.90;;;12.70;92.30;;;;;;5053630;28;20778;-71
2022/03/20 11:04:46;;;;;;;1999.90;999.90;;;12.10;93.40;;;;;;5053628;28;20560;-71
2022/03/20 11:07:16;;;;;;;1999.90;999.90;;;12.00;92.30;;;;;;5053262;28;20951;-71
2022/03/20 11:09:52;;;;;;;1999.90;999.90;;;12.00;93.80;;;;;;5053650;28;20193;-71
2022/03/20 11:12:28;;;;;;;1999.90;999.90;;;11.90;94.20;;;;;;5053000;28;20552;-71
2022/03/20 11:14:59;;;;;;;1999.90;999.90;;;11.60;93.80;;;;;;5052997;28;20557;-71
2022/03/20 11:17:31;;;;;;;1999.90;999.90;;;11.70;96.00;;;;;;5053878;28;20413;-71
2022/03/20 11:19:59;;;;;;;1999.90;999.90;;;11.50;95.60;;;;;;5053671;28;20417;-71
2022/03/20 11:22:27;;;;;;;1999.90;999.90;;;11.50;96.40;;;;;;5053201;28;20403;-72
2022/03/20 11:24:55;;;;;;;1999.90;999.90;;;11.30;96.90;;;;;;5053242;28;20432;-72
2022/03/20 11:27:28;;;;;;;1999.90;999.90;;;11.30;98.60;;;;;;5053428;28;20492;-72
2022/03/20 11:30:03;;;;;;;1999.90;999.90;;;11.40;97.70;;;;;;5053094;28;20851;-72
2022/03/20 11:32:29;;;;;;;1999.90;999.90;;;11.40;98.70;;;;;;5045131;28;21123;-72
2022/03/20 11:34:56;;;;;;;1999.90;999.90;;;11.30;99.00;;;;;;5052964;28;20575;-71
2022/03/20 11:37:21;;;;;;;1999.90;999.90;;;11.30;99.70;;;;;;5052795;28;20410;-72
2022/03/20 11:40:07;;;;;;;1999.90;999.90;;;11.00;99.90;;;;;;5053300;28;20413;-72
2022/03/20 11:42:32;;;;;;;1999.90;999.90;;;10.90;99.90;;;;;;5053243;28;20178;-71
2022/03/20 11:45:04;;;;;;;1999.90;999.90;;;10.70;99.90;;;;;;5052486;28;20515;-71
2022/03/20 11:47:35;;;;;;;1999.90;999.90;;;10.60;99.90;;;;;;5052924;28;20618;-72
2022/03/20 11:50:19;;;;;;;1999.90;999.90;;;10.50;99.90;;;;;;5053291;28;20775;-71
2022/03/20 11:52:49;;;;;;;1999.90;999.90;;;10.40;99.90;;;;;;5052271;28;20512;-71
2022/03/20 11:55:29;;;;;;;1999.90;999.90;;;10.40;99.90;;;;;;5052568;28;20997;-71
2022/03/20 11:57:56;;;;;;;1999.90;999.90;;;10.10;99.90;;;;;;5052224;28;20822;-72
2022/03/20 12:00:30;;;;;;;1999.90;999.90;;;10.00;99.90;;;;;;5052471;28;20492;-71
2022/03/20 12:03:13;;;;;;;1999.90;999.90;;;9.90;99.90;;;;;;5052787;28;20416;-71
2022/03/20 12:05:41;;;;;;;1999.90;999.90;;;9.60;99.90;;;;;;5045938;28;20431;-71
2022/03/20 12:08:07;;;;;;;1999.90;999.90;;;9.40;99.90;;;;;;5052090;28;20505;-71
2022/03/20 12:10:37;;;;;;;1999.90;999.90;;;9.20;99.90;;;;;;5052213;28;20981;-71
2022/03/20 12:13:32;;;;;;;1999.90;999.90;;;9.00;99.90;;;;;;5052464;28;20170;-71
2022/03/20 12:15:58;;;;;;;1999.90;999.90;;;9.00;99.90;;;;;;5051765;28;20423;-71
2022/03/20 12:18:24;;;;;;;1999.90;999.90;;;9.00;99.90;;;;;;5052584;28;20409;-71
2022/03/20 12:20:59;;;;;;;1999.90;999.90;;;9.00;99.90;;;;;;5052585;28;20256;-71
2022/03/20 12:23:40;;;;;;;1999.90;999.90;;;8.90;99.90;;;;;;5052186;28;20188;-70
2022/03/20 12:26:23;;;;;;;1999.90;999.90;;;8.90;99.90;;;;;;5052027;28;20419;-70
2022/03/20 12:28:49;;;;;;;1999.90;999.90;;;8.80;99.90;;;;;;5051887;28;20419;-70
2022/03/20 12:31:27;;;;;;;1999.90;999.90;;;8.70;99.90;;;;;;5051930;28;20815;-70
2022/03/20 12:34:21;;;;;;;1999.90;999.90;;;8.70;99.90;;;;;;5052048;28;20176;-71
2022/03/20 12:36:47;;;;;;;1999.90;999.90;;;8.50;99.90;;;;;;5051842;28;20408;-71
2022/03/20 12:39:12;;;;;;;1999.90;999.90;;;8.30;99.90;;;;;;5052265;28;20402;-70
2022/03/20 12:41:38;;;;;;;1999.90;999.90;;;8.30;99.90;;;;;;5052144;28;20204;-70
2022/03/20 12:44:07;;;;;;;1999.90;999.90;;;8.30;99.90;;;;;;5051202;28;20175;-71
2022/03/20 12:46:37;;;;;;;1999.90;999.90;;;8.30;99.90;;;;;;5052070;28;20197;-71
2022/03/20 12:49:03;;;;;;;1999.90;999.90;;;8.30;99.90;;;;;;5052020;28;20438;-70